Airfield :
LOGIN :

Register | Disclaimer

   EN    FR    IT 

 










Legend :    VFR   Marginal VFR   IFR   Intensive IFR   Very Intensive IFR
Visi :
Ceiling :
>= 8 km
>= 3000ft
5 to 8 km
1000 to 3000 ft
1500m to 5 km
500 to 1000 ft
800 to 1500m
200 to 500 ft
< 800m
< 200 ft
Symbols :   Thunderstorms  Fog  Heavy snow  Heavy precipitations  Wind > 20 kt
SIGMETs :     Misc.  Thunderstorms  Icing  Turbulence  Mountain Waves  Volcanic Ashes







- Airport Elevation : 466 ft


LHPA - Pápa

CURRENT METAR :
  • 250115Z 31006KT 290V350 9999 SCT040 OVC083 14/11 Q1018 NOSIG RMK BLU

EXPIRED METARs :
  • 250045Z 33008KT 9999 SCT040 OVC083 14/11 Q1018 NOSIG RMK BLU
  • 250015Z 27004KT CAVOK 14/11 Q1018 NOSIG RMK BLU
  • 242345Z 19002KT 9999 SCT057TCU SCT067 BKN083 13/11 Q1018 TEMPO -RA -SHRA RMK BLU
  • 242315Z 00000KT 9999 SCT057TCU SCT067 BKN083 13/11 Q1018 TEMPO -RA -SHRA RMK BLU
  • 242245Z 15002KT CAVOK 13/11 Q1018 NOSIG RMK BLU

TAF TAF LHPA
Valid from the 25 at 00:00 until the 26 at 00:00 UTC


242315Z 2500/2524 VRB03KT CAVOK
BECMG 2503/2506 35009KT
TEMPO 2501/2509 8000 -RA -SHRA BKN030 BKN080
BECMG 2515/2518 VRB03KT
No reported NOTAMs for that airfield.



MET'MAP, your aeronautical weather chart ! - Copyright ORBIFLY December 2007 - Disclaimer

ORBIFLY MET'MAP TEAM :

Programming & Development : Alexandra Zaïnal
Concept & Development : Baudouin d'Aumeries
Co-Development & Prog : Marc-Olivier Méhu
Technical & hardware support : Manuel Goepfert

Contact : metmap@orbifly.com




SOURCES & CREDITS :

   NOAA